Domov               UVHVVR             MKGP            O straneh              
ZDRAVSTVENO VARSTVO RASTLIN
  MREŽA AGROMET. POSTAJ
 ► PROGNOSTIČNA OBVESTILA
AGROMETEOROLOŠKI PODATKI -
ARSO
OBVLADOVANJE TVEGANJ ZARADI
NEUGODNIH VREMENSKIH RAZMER
  ► NARAVNE NESREČE
  ► SUŠA/MOČA
  ► NAMAKANJE
  ► ŽLED (gozdarstvo)
KARTOGRAFSKI PRIKAZI
SPLETNE POVEZAVE
PROJEKTI IN PUBLIKACIJE

AGROMETEOROLOŠKA MREŽA: VREMENSKE POSTAJE IN FENOLOŠKA OPAZOVANJA

Pregled podatkov za lokacijo Škofja vas, meteorološka postaja 49151

Pregled senzorjev na lokaciji

ID Ime Zadnja
vrednost
Datum
zadnje
spremembe
Tip
senzorja
3712 Temperatura 2 m ( °C) 23,5 °C 19.10.2017 15:29 50YA
3713 Relativna vlaga 2 m (% RH) 36,87 % RH 19.10.2017 15:30 50YA
3714 Omočenost lista (U) 0 U 19.10.2017 15:30 A730WET
3715 Sončno sevanje (W/m2) 258,43 W/m2 19.10.2017 15:29 Pyranometer SP-Lite
3716 Temperatura tal ( °C) 14,26 °C 19.10.2017 15:29 99TG411E
3717 Hitrost vetra (km/h) 4,47 km/h 19.10.2017 15:29 566.2S-176 (200km/h)
3718 Smer vetra (°) 240,27 ° 19.10.2017 15:30 566.2S-130
3719 Padavine 0.2 mm (mm) 0 mm 19.10.2017 15:29 Rain-O-Matic

Pregled podatkov zadnjih 24 ur

Zap.
št.
Datum in čas Škofja vas
Hitrost
vetra
Omočenost
lista
Padavine
0.2
mm
Relativna
vlaga
2
m
Smer
vetra
Sončno
sevanje
Temperatura
2
m
Temperatura
tal
0 19.10.2017 14:30 4,47 0 0 36,87 240,27 258,43 23,5 14,26
1 19.10.2017 14:00 0,95 0 0 39,47 297,57 293,37 22,96 14,14
2 19.10.2017 13:30 0,92 0 0 41,52 320,12 326,63 22,63 13,97
3 19.10.2017 13:00 5,56 0 0 42,87 345,7 345,59 21,7 13,85
4 19.10.2017 12:30 3,72 0 0 44,14 317,03 369,48 21,14 13,72
5 19.10.2017 12:00 0,8 0 0 45,57 300,59 260,93 20,62 13,6
6 19.10.2017 11:30 5,27 0 0 48,15 298,71 270,02 19,87 13,57
7 19.10.2017 11:00 6,85 0 0 49,63 266,22 355,63 19,15 13,5
8 19.10.2017 10:30 2,46 0 0 55,81 227,04 329,5 17,76 13,43
9 19.10.2017 10:00 0,66 0 0 61,59 218,59 297,03 16,37 13,42
10 19.10.2017 09:30 0,05 0 0 68,09 293,13 252,96 14,48 13,42
11 19.10.2017 09:00 0,05 10 0 73,61 92,82 208,44 12,73 13,37
12 19.10.2017 08:30 0,05 10 0 82,87 245,03 155,4 10,46 13,26
13 19.10.2017 08:00 0,05 10 0 92,3 159,4 105,99 8,24 13,21
14 19.10.2017 07:30 0,05 10 0 99,34 69,44 61,95 5,91 13,18
15 19.10.2017 07:00 0,05 10 0 100 353,99 15,99 4,42 13,13
16 19.10.2017 06:30 0,05 10 0 99,97 25,21 2,75 4,45 13,19
17 19.10.2017 06:00 0,05 10 0 99,96 1,59 0,49 4,64 13,29
18 19.10.2017 05:30 0,05 10 0 99,39 32,5 0,58 4,6 13,34
19 19.10.2017 05:00 0,05 10 0 98,75 25,24 0,55 5,1 13,42
20 19.10.2017 04:30 0,05 10 0 98,57 38,06 0,52 5,45 13,52
21 19.10.2017 04:00 0,05 10 0 98,92 41,96 0,55 5,57 13,61
22 19.10.2017 03:30 0,05 10 0 99,22 9,92 0,52 5,64 13,7
23 19.10.2017 03:00 0,05 10 0 99,48 58,64 0,55 5,29 13,76
24 19.10.2017 02:30 0,05 10 0 98,56 50,89 0,55 5,33 13,84
25 19.10.2017 02:00 0,05 10 0 96,43 48,6 0,52 6,41 13,94
26 19.10.2017 01:30 0,05 10 0 97,01 79,7 0,58 6,5 14,02
27 19.10.2017 01:00 0,05 10 0 95,56 33,16 0,58 6,9 14,08
28 19.10.2017 00:30 0,05 10 0 96,63 44,41 0,52 7,01 14,18
29 19.10.2017 00:00 0,05 10 0 95,72 67,15 6,94 14,26
30 18.10.2017 23:30 0,05 10 0 89,86 39,27 8,63 14,37
31 18.10.2017 23:00 0,05 10 0 93,26 156,53 8,42 14,4
32 18.10.2017 22:30 0,05 5 0 94,88 284,54 7,85 14,48
33 18.10.2017 22:00 0,05 1 0 91,13 28,34 8,78 14,57
34 18.10.2017 21:30 0,05 0 0 87,56 325,52 9,84 14,66
35 18.10.2017 21:00 0,05 0 0 83,91 29,49 10,42 14,71
36 18.10.2017 20:30 0,05 0 0 86,68 93,58 9,96 14,77
37 18.10.2017 20:00 0,05 0 0 82,44 43,83 10,68 14,87
38 18.10.2017 19:30 1,99 0 0 56,67 31,18 16,76 15,03
39 18.10.2017 19:00 6,18 0 0 52,88 314,91 17,6 15,06
40 18.10.2017 18:30 4,39 0 0 50,53 310,62 17,84 15,09
41 18.10.2017 18:00 1,32 0 0 55,85 272,25 16,35 14,97
42 18.10.2017 17:30 0,05 0 0 61,96 322,63 15,47 14,93
43 18.10.2017 17:00 0,05 0 0 50,96 317,38 9,89 18,6 15,03
44 18.10.2017 16:30 0,05 0 0 38,11 286,67 63,17 21,93 15,19
© 2011 Ministrstvo za kmetijstvo, gozdarstvo in prehrano. Vse pravice pridržane.